sensor_id;sensor_type;location;lat;lon;timestamp;P1;durP1;ratioP1;P2;durP2;ratioP2
24223;SDS011;12359;49.716;9.212;2022-09-13T00:00:35;13.15;;;9.15;;
24223;SDS011;12359;49.716;9.212;2022-09-13T00:03:02;9.00;;;8.13;;
24223;SDS011;12359;49.716;9.212;2022-09-13T00:05:28;10.57;;;8.57;;
24223;SDS011;12359;49.716;9.212;2022-09-13T00:07:54;16.20;;;9.25;;
24223;SDS011;12359;49.716;9.212;2022-09-13T00:10:20;10.63;;;8.60;;
24223;SDS011;12359;49.716;9.212;2022-09-13T00:12:47;13.88;;;8.20;;
24223;SDS011;12359;49.716;9.212;2022-09-13T00:15:13;11.55;;;8.55;;
24223;SDS011;12359;49.716;9.212;2022-09-13T00:17:39;10.73;;;8.63;;
24223;SDS011;12359;49.716;9.212;2022-09-13T00:20:05;10.48;;;8.10;;
24223;SDS011;12359;49.716;9.212;2022-09-13T00:22:32;13.25;;;7.88;;
24223;SDS011;12359;49.716;9.212;2022-09-13T00:24:58;11.50;;;7.93;;
24223;SDS011;12359;49.716;9.212;2022-09-13T00:27:24;7.90;;;7.05;;
24223;SDS011;12359;49.716;9.212;2022-09-13T00:29:49;8.65;;;7.47;;
24223;SDS011;12359;49.716;9.212;2022-09-13T00:32:15;12.07;;;7.03;;
24223;SDS011;12359;49.716;9.212;2022-09-13T00:34:41;8.27;;;6.55;;
24223;SDS011;12359;49.716;9.212;2022-09-13T00:37:07;12.60;;;6.85;;
24223;SDS011;12359;49.716;9.212;2022-09-13T00:39:33;9.02;;;7.55;;
24223;SDS011;12359;49.716;9.212;2022-09-13T00:41:59;11.15;;;7.90;;
24223;SDS011;12359;49.716;9.212;2022-09-13T00:47:08;8.40;;;7.18;;
24223;SDS011;12359;49.716;9.212;2022-09-13T00:49:37;11.07;;;8.18;;
24223;SDS011;12359;49.716;9.212;2022-09-13T00:52:07;8.55;;;6.90;;
24223;SDS011;12359;49.716;9.212;2022-09-13T00:54:42;7.82;;;7.07;;
24223;SDS011;12359;49.716;9.212;2022-09-13T00:57:12;10.02;;;7.60;;
24223;SDS011;12359;49.716;9.212;2022-09-13T00:59:51;7.72;;;6.78;;
24223;SDS011;12359;49.716;9.212;2022-09-13T01:02:17;16.33;;;8.00;;
24223;SDS011;12359;49.716;9.212;2022-09-13T01:04:44;10.25;;;8.40;;
24223;SDS011;12359;49.716;9.212;2022-09-13T01:07:10;9.38;;;8.25;;
24223;SDS011;12359;49.716;9.212;2022-09-13T01:09:38;10.60;;;8.90;;
24223;SDS011;12359;49.716;9.212;2022-09-13T01:14:58;12.98;;;8.70;;
24223;SDS011;12359;49.716;9.212;2022-09-13T01:17:26;10.13;;;7.57;;
24223;SDS011;12359;49.716;9.212;2022-09-13T01:19:54;11.38;;;7.32;;
24223;SDS011;12359;49.716;9.212;2022-09-13T01:30:22;12.52;;;7.82;;
24223;SDS011;12359;49.716;9.212;2022-09-13T01:39:02;8.05;;;7.07;;
24223;SDS011;12359;49.716;9.212;2022-09-13T01:45:08;9.10;;;7.80;;
24223;SDS011;12359;49.716;9.212;2022-09-13T01:50:26;9.10;;;6.93;;
24223;SDS011;12359;49.716;9.212;2022-09-13T01:55:57;11.88;;;8.32;;
24223;SDS011;12359;49.716;9.212;2022-09-13T02:04:07;9.85;;;7.78;;
24223;SDS011;12359;49.716;9.212;2022-09-13T02:06:50;9.77;;;8.27;;
24223;SDS011;12359;49.716;9.212;2022-09-13T02:09:25;8.68;;;7.78;;
24223;SDS011;12359;49.716;9.212;2022-09-13T02:11:57;12.27;;;8.57;;
24223;SDS011;12359;49.716;9.212;2022-09-13T02:14:29;10.48;;;7.40;;
24223;SDS011;12359;49.716;9.212;2022-09-13T02:17:03;9.48;;;8.45;;
24223;SDS011;12359;49.716;9.212;2022-09-13T02:19:36;17.77;;;9.27;;
24223;SDS011;12359;49.716;9.212;2022-09-13T02:22:12;14.18;;;9.52;;
24223;SDS011;12359;49.716;9.212;2022-09-13T02:24:43;10.77;;;7.68;;
24223;SDS011;12359;49.716;9.212;2022-09-13T02:27:13;13.57;;;8.27;;
24223;SDS011;12359;49.716;9.212;2022-09-13T02:29:44;9.05;;;7.85;;
24223;SDS011;12359;49.716;9.212;2022-09-13T02:32:17;8.38;;;7.53;;
24223;SDS011;12359;49.716;9.212;2022-09-13T02:34:52;7.65;;;6.88;;
24223;SDS011;12359;49.716;9.212;2022-09-13T02:37:21;9.18;;;8.13;;
24223;SDS011;12359;49.716;9.212;2022-09-13T02:39:52;8.90;;;7.82;;
24223;SDS011;12359;49.716;9.212;2022-09-13T02:42:32;12.55;;;8.93;;
24223;SDS011;12359;49.716;9.212;2022-09-13T02:45:05;10.85;;;8.35;;
24223;SDS011;12359;49.716;9.212;2022-09-13T02:47:43;11.43;;;7.95;;
24223;SDS011;12359;49.716;9.212;2022-09-13T02:58:45;9.75;;;8.25;;
24223;SDS011;12359;49.716;9.212;2022-09-13T03:01:18;9.05;;;7.57;;
24223;SDS011;12359;49.716;9.212;2022-09-13T03:03:45;13.55;;;9.30;;
24223;SDS011;12359;49.716;9.212;2022-09-13T03:06:11;11.18;;;8.10;;
24223;SDS011;12359;49.716;9.212;2022-09-13T03:08:37;9.88;;;7.70;;
24223;SDS011;12359;49.716;9.212;2022-09-13T03:13:53;15.30;;;9.95;;
24223;SDS011;12359;49.716;9.212;2022-09-13T03:16:42;9.50;;;8.48;;
24223;SDS011;12359;49.716;9.212;2022-09-13T03:31:11;9.52;;;8.48;;
24223;SDS011;12359;49.716;9.212;2022-09-13T03:33:46;11.23;;;7.38;;
24223;SDS011;12359;49.716;9.212;2022-09-13T03:44:26;10.45;;;7.70;;
24223;SDS011;12359;49.716;9.212;2022-09-13T03:46:56;13.15;;;8.95;;
24223;SDS011;12359;49.716;9.212;2022-09-13T03:49:25;9.02;;;8.10;;
24223;SDS011;12359;49.716;9.212;2022-09-13T03:51:53;9.23;;;8.18;;
24223;SDS011;12359;49.716;9.212;2022-09-13T03:54:29;11.13;;;8.30;;
24223;SDS011;12359;49.716;9.212;2022-09-13T03:59:34;9.50;;;7.93;;
24223;SDS011;12359;49.716;9.212;2022-09-13T04:02:02;8.77;;;7.93;;
24223;SDS011;12359;49.716;9.212;2022-09-13T04:04:28;10.95;;;7.88;;
24223;SDS011;12359;49.716;9.212;2022-09-13T04:06:54;8.13;;;7.32;;
24223;SDS011;12359;49.716;9.212;2022-09-13T04:09:21;9.65;;;7.80;;
24223;SDS011;12359;49.716;9.212;2022-09-13T04:11:47;13.13;;;7.40;;
24223;SDS011;12359;49.716;9.212;2022-09-13T04:14:13;9.07;;;7.93;;
24223;SDS011;12359;49.716;9.212;2022-09-13T04:16:40;14.85;;;7.88;;
24223;SDS011;12359;49.716;9.212;2022-09-13T04:19:06;9.52;;;7.97;;
24223;SDS011;12359;49.716;9.212;2022-09-13T04:21:31;11.02;;;8.63;;
24223;SDS011;12359;49.716;9.212;2022-09-13T04:23:57;8.85;;;7.95;;
24223;SDS011;12359;49.716;9.212;2022-09-13T04:26:23;11.27;;;8.55;;
24223;SDS011;12359;49.716;9.212;2022-09-13T04:28:48;10.40;;;8.80;;
24223;SDS011;12359;49.716;9.212;2022-09-13T04:31:16;13.60;;;7.93;;
24223;SDS011;12359;49.716;9.212;2022-09-13T04:33:41;12.15;;;8.05;;
24223;SDS011;12359;49.716;9.212;2022-09-13T04:36:07;11.57;;;8.93;;
24223;SDS011;12359;49.716;9.212;2022-09-13T04:38:33;7.65;;;6.88;;
24223;SDS011;12359;49.716;9.212;2022-09-13T04:40:58;10.93;;;7.38;;
24223;SDS011;12359;49.716;9.212;2022-09-13T04:43:24;8.98;;;8.07;;
24223;SDS011;12359;49.716;9.212;2022-09-13T04:45:50;13.63;;;10.02;;
24223;SDS011;12359;49.716;9.212;2022-09-13T04:48:16;11.40;;;8.90;;
24223;SDS011;12359;49.716;9.212;2022-09-13T04:50:41;13.25;;;8.93;;
24223;SDS011;12359;49.716;9.212;2022-09-13T04:53:07;12.07;;;9.45;;
24223;SDS011;12359;49.716;9.212;2022-09-13T04:55:33;11.52;;;9.18;;
24223;SDS011;12359;49.716;9.212;2022-09-13T04:58:00;11.45;;;8.73;;
24223;SDS011;12359;49.716;9.212;2022-09-13T05:00:26;12.43;;;8.18;;
24223;SDS011;12359;49.716;9.212;2022-09-13T05:02:55;11.82;;;8.85;;
24223;SDS011;12359;49.716;9.212;2022-09-13T05:05:21;9.73;;;8.73;;
24223;SDS011;12359;49.716;9.212;2022-09-13T05:07:49;10.38;;;7.97;;
24223;SDS011;12359;49.716;9.212;2022-09-13T05:10:15;9.63;;;8.55;;
24223;SDS011;12359;49.716;9.212;2022-09-13T05:12:41;10.60;;;8.23;;
24223;SDS011;12359;49.716;9.212;2022-09-13T05:15:07;12.70;;;7.93;;
24223;SDS011;12359;49.716;9.212;2022-09-13T05:17:33;11.20;;;8.05;;
24223;SDS011;12359;49.716;9.212;2022-09-13T05:19:59;10.30;;;8.68;;
24223;SDS011;12359;49.716;9.212;2022-09-13T05:22:24;12.50;;;8.93;;
24223;SDS011;12359;49.716;9.212;2022-09-13T05:24:50;11.20;;;8.52;;
24223;SDS011;12359;49.716;9.212;2022-09-13T05:27:16;11.10;;;8.68;;
24223;SDS011;12359;49.716;9.212;2022-09-13T05:29:41;9.77;;;8.77;;
24223;SDS011;12359;49.716;9.212;2022-09-13T05:32:07;8.43;;;7.53;;
24223;SDS011;12359;49.716;9.212;2022-09-13T05:34:33;8.18;;;7.10;;
24223;SDS011;12359;49.716;9.212;2022-09-13T05:36:58;8.95;;;7.45;;
24223;SDS011;12359;49.716;9.212;2022-09-13T05:39:24;9.82;;;7.05;;
24223;SDS011;12359;49.716;9.212;2022-09-13T05:41:50;9.20;;;7.85;;
24223;SDS011;12359;49.716;9.212;2022-09-13T05:44:15;13.93;;;7.88;;
24223;SDS011;12359;49.716;9.212;2022-09-13T05:46:41;11.00;;;7.18;;
24223;SDS011;12359;49.716;9.212;2022-09-13T05:49:10;13.18;;;7.57;;
24223;SDS011;12359;49.716;9.212;2022-09-13T05:51:37;8.77;;;7.70;;
24223;SDS011;12359;49.716;9.212;2022-09-13T05:54:03;8.63;;;7.72;;
24223;SDS011;12359;49.716;9.212;2022-09-13T05:56:29;9.90;;;8.07;;
24223;SDS011;12359;49.716;9.212;2022-09-13T05:58:56;14.43;;;8.10;;
24223;SDS011;12359;49.716;9.212;2022-09-13T06:01:23;13.85;;;7.57;;
24223;SDS011;12359;49.716;9.212;2022-09-13T06:03:54;9.38;;;7.75;;
24223;SDS011;12359;49.716;9.212;2022-09-13T06:06:22;9.75;;;7.68;;
24223;SDS011;12359;49.716;9.212;2022-09-13T06:08:52;9.25;;;7.60;;
24223;SDS011;12359;49.716;9.212;2022-09-13T06:11:21;12.48;;;8.05;;
24223;SDS011;12359;49.716;9.212;2022-09-13T06:13:48;11.68;;;7.93;;
24223;SDS011;12359;49.716;9.212;2022-09-13T06:16:14;9.93;;;7.70;;
24223;SDS011;12359;49.716;9.212;2022-09-13T06:18:41;9.65;;;7.15;;
24223;SDS011;12359;49.716;9.212;2022-09-13T06:21:17;9.45;;;8.27;;
24223;SDS011;12359;49.716;9.212;2022-09-13T06:23:47;14.10;;;8.10;;
24223;SDS011;12359;49.716;9.212;2022-09-13T06:26:21;9.93;;;8.63;;
24223;SDS011;12359;49.716;9.212;2022-09-13T06:28:52;11.52;;;7.38;;
24223;SDS011;12359;49.716;9.212;2022-09-13T06:31:20;9.95;;;7.72;;
24223;SDS011;12359;49.716;9.212;2022-09-13T06:33:48;9.88;;;8.25;;
24223;SDS011;12359;49.716;9.212;2022-09-13T06:36:19;11.90;;;9.15;;
24223;SDS011;12359;49.716;9.212;2022-09-13T06:38:45;10.60;;;8.48;;
24223;SDS011;12359;49.716;9.212;2022-09-13T06:41:16;11.10;;;8.80;;
24223;SDS011;12359;49.716;9.212;2022-09-13T06:43:43;11.85;;;8.85;;
24223;SDS011;12359;49.716;9.212;2022-09-13T06:46:10;11.82;;;9.95;;
24223;SDS011;12359;49.716;9.212;2022-09-13T06:48:39;11.05;;;9.35;;
24223;SDS011;12359;49.716;9.212;2022-09-13T06:51:07;11.65;;;9.63;;
24223;SDS011;12359;49.716;9.212;2022-09-13T06:53:34;12.55;;;9.27;;
24223;SDS011;12359;49.716;9.212;2022-09-13T06:56:15;13.73;;;9.00;;
24223;SDS011;12359;49.716;9.212;2022-09-13T06:58:41;10.55;;;9.48;;
24223;SDS011;12359;49.716;9.212;2022-09-13T07:01:11;10.90;;;9.07;;
24223;SDS011;12359;49.716;9.212;2022-09-13T07:03:40;9.05;;;8.05;;
24223;SDS011;12359;49.716;9.212;2022-09-13T07:06:09;12.40;;;7.03;;
24223;SDS011;12359;49.716;9.212;2022-09-13T07:08:36;9.70;;;7.32;;
24223;SDS011;12359;49.716;9.212;2022-09-13T07:11:03;11.77;;;8.05;;
24223;SDS011;12359;49.716;9.212;2022-09-13T07:13:28;24.30;;;7.80;;
24223;SDS011;12359;49.716;9.212;2022-09-13T07:15:54;9.82;;;7.32;;
24223;SDS011;12359;49.716;9.212;2022-09-13T07:18:20;8.45;;;7.63;;
24223;SDS011;12359;49.716;9.212;2022-09-13T07:20:46;8.75;;;7.85;;
24223;SDS011;12359;49.716;9.212;2022-09-13T07:23:11;9.70;;;6.93;;
24223;SDS011;12359;49.716;9.212;2022-09-13T07:25:37;11.07;;;6.93;;
24223;SDS011;12359;49.716;9.212;2022-09-13T07:28:02;9.25;;;7.13;;
24223;SDS011;12359;49.716;9.212;2022-09-13T07:30:28;9.10;;;7.72;;
24223;SDS011;12359;49.716;9.212;2022-09-13T07:32:54;9.20;;;7.15;;
24223;SDS011;12359;49.716;9.212;2022-09-13T07:35:19;10.57;;;6.88;;
24223;SDS011;12359;49.716;9.212;2022-09-13T07:37:45;7.63;;;6.60;;
24223;SDS011;12359;49.716;9.212;2022-09-13T07:40:11;7.18;;;6.47;;
24223;SDS011;12359;49.716;9.212;2022-09-13T07:42:37;7.15;;;6.25;;
24223;SDS011;12359;49.716;9.212;2022-09-13T07:45:03;7.95;;;6.50;;
24223;SDS011;12359;49.716;9.212;2022-09-13T07:47:31;8.38;;;6.90;;
24223;SDS011;12359;49.716;9.212;2022-09-13T07:49:57;6.25;;;5.65;;
24223;SDS011;12359;49.716;9.212;2022-09-13T07:52:23;12.38;;;6.60;;
24223;SDS011;12359;49.716;9.212;2022-09-13T07:54:49;8.25;;;5.85;;
24223;SDS011;12359;49.716;9.212;2022-09-13T07:57:14;6.20;;;5.50;;
24223;SDS011;12359;49.716;9.212;2022-09-13T07:59:40;7.88;;;4.57;;
24223;SDS011;12359;49.716;9.212;2022-09-13T08:02:07;6.10;;;4.85;;
24223;SDS011;12359;49.716;9.212;2022-09-13T08:04:33;6.57;;;5.38;;
24223;SDS011;12359;49.716;9.212;2022-09-13T08:07:00;7.47;;;6.18;;
24223;SDS011;12359;49.716;9.212;2022-09-13T08:09:25;6.03;;;5.53;;
24223;SDS011;12359;49.716;9.212;2022-09-13T08:11:51;8.32;;;6.38;;
24223;SDS011;12359;49.716;9.212;2022-09-13T08:14:18;8.68;;;6.20;;
24223;SDS011;12359;49.716;9.212;2022-09-13T08:16:45;9.80;;;6.60;;
24223;SDS011;12359;49.716;9.212;2022-09-13T08:19:13;6.95;;;6.32;;
24223;SDS011;12359;49.716;9.212;2022-09-13T08:21:40;7.95;;;6.00;;
24223;SDS011;12359;49.716;9.212;2022-09-13T08:24:10;9.07;;;6.13;;
24223;SDS011;12359;49.716;9.212;2022-09-13T08:26:45;7.55;;;6.75;;
24223;SDS011;12359;49.716;9.212;2022-09-13T08:29:12;8.77;;;7.00;;
24223;SDS011;12359;49.716;9.212;2022-09-13T08:31:39;8.80;;;6.60;;
24223;SDS011;12359;49.716;9.212;2022-09-13T08:34:06;10.60;;;7.78;;
24223;SDS011;12359;49.716;9.212;2022-09-13T08:36:35;10.75;;;7.88;;
24223;SDS011;12359;49.716;9.212;2022-09-13T08:39:00;11.82;;;7.88;;
24223;SDS011;12359;49.716;9.212;2022-09-13T08:46:50;10.77;;;7.63;;
24223;SDS011;12359;49.716;9.212;2022-09-13T08:49:25;6.78;;;5.32;;
24223;SDS011;12359;49.716;9.212;2022-09-13T08:51:58;6.18;;;5.65;;
24223;SDS011;12359;49.716;9.212;2022-09-13T08:54:29;6.80;;;5.43;;
24223;SDS011;12359;49.716;9.212;2022-09-13T09:05:40;12.30;;;6.95;;
24223;SDS011;12359;49.716;9.212;2022-09-13T09:11:03;10.25;;;6.45;;
24223;SDS011;12359;49.716;9.212;2022-09-13T09:13:51;7.82;;;6.20;;
24223;SDS011;12359;49.716;9.212;2022-09-13T09:19:17;16.98;;;7.80;;
24223;SDS011;12359;49.716;9.212;2022-09-13T09:21:58;7.95;;;6.22;;
24223;SDS011;12359;49.716;9.212;2022-09-13T09:24:28;10.05;;;6.88;;
24223;SDS011;12359;49.716;9.212;2022-09-13T09:27:00;9.50;;;6.30;;
24223;SDS011;12359;49.716;9.212;2022-09-13T09:29:34;8.57;;;5.75;;
24223;SDS011;12359;49.716;9.212;2022-09-13T09:37:36;10.27;;;6.20;;
24223;SDS011;12359;49.716;9.212;2022-09-13T09:40:05;8.50;;;5.97;;
24223;SDS011;12359;49.716;9.212;2022-09-13T09:42:46;6.03;;;5.43;;
24223;SDS011;12359;49.716;9.212;2022-09-13T09:47:57;13.40;;;7.05;;
24223;SDS011;12359;49.716;9.212;2022-09-13T09:50:35;6.38;;;5.28;;
24223;SDS011;12359;49.716;9.212;2022-09-13T09:55:49;8.85;;;6.47;;
24223;SDS011;12359;49.716;9.212;2022-09-13T09:58:43;9.18;;;6.70;;
24223;SDS011;12359;49.716;9.212;2022-09-13T10:06:25;20.33;;;13.93;;
24223;SDS011;12359;49.716;9.212;2022-09-13T10:09:00;21.50;;;13.77;;
24223;SDS011;12359;49.716;9.212;2022-09-13T10:17:24;13.30;;;10.07;;
24223;SDS011;12359;49.716;9.212;2022-09-13T10:22:26;12.18;;;9.40;;
24223;SDS011;12359;49.716;9.212;2022-09-13T10:24:53;16.60;;;10.80;;
24223;SDS011;12359;49.716;9.212;2022-09-13T10:29:52;31.77;;;17.63;;
24223;SDS011;12359;49.716;9.212;2022-09-13T10:32:23;25.70;;;15.27;;
24223;SDS011;12359;49.716;9.212;2022-09-13T10:34:50;31.17;;;15.75;;
24223;SDS011;12359;49.716;9.212;2022-09-13T10:39:52;33.60;;;17.13;;
24223;SDS011;12359;49.716;9.212;2022-09-13T10:42:20;19.42;;;12.10;;
24223;SDS011;12359;49.716;9.212;2022-09-13T10:47:38;14.02;;;8.50;;
24223;SDS011;12359;49.716;9.212;2022-09-13T10:55:25;9.48;;;7.88;;
24223;SDS011;12359;49.716;9.212;2022-09-13T10:58:17;9.75;;;7.78;;
24223;SDS011;12359;49.716;9.212;2022-09-13T11:12:16;10.23;;;8.23;;
24223;SDS011;12359;49.716;9.212;2022-09-13T11:22:40;6.10;;;5.60;;
24223;SDS011;12359;49.716;9.212;2022-09-13T11:30:56;12.05;;;6.60;;
24223;SDS011;12359;49.716;9.212;2022-09-13T11:39:06;10.52;;;6.55;;
24223;SDS011;12359;49.716;9.212;2022-09-13T11:56:22;9.15;;;6.57;;
24223;SDS011;12359;49.716;9.212;2022-09-13T11:59:14;7.82;;;6.90;;
24223;SDS011;12359;49.716;9.212;2022-09-13T12:01:56;10.07;;;6.63;;
24223;SDS011;12359;49.716;9.212;2022-09-13T12:04:29;10.45;;;8.07;;
24223;SDS011;12359;49.716;9.212;2022-09-13T12:07:03;10.33;;;8.40;;
24223;SDS011;12359;49.716;9.212;2022-09-13T12:09:37;9.50;;;8.05;;
24223;SDS011;12359;49.716;9.212;2022-09-13T12:12:11;10.02;;;8.43;;
24223;SDS011;12359;49.716;9.212;2022-09-13T12:20:15;8.30;;;7.50;;
24223;SDS011;12359;49.716;9.212;2022-09-13T12:22:59;8.20;;;7.20;;
24223;SDS011;12359;49.716;9.212;2022-09-13T12:29:08;7.88;;;6.88;;
24223;SDS011;12359;49.716;9.212;2022-09-13T12:31:22;13.60;;;8.02;;
24223;SDS011;12359;49.716;9.212;2022-09-13T12:33:53;19.83;;;8.27;;
24223;SDS011;12359;49.716;9.212;2022-09-13T12:47:08;11.90;;;8.55;;
24223;SDS011;12359;49.716;9.212;2022-09-13T13:04:19;12.40;;;6.18;;
24223;SDS011;12359;49.716;9.212;2022-09-13T13:06:41;7.65;;;6.03;;
24223;SDS011;12359;49.716;9.212;2022-09-13T13:12:10;8.35;;;6.90;;
24223;SDS011;12359;49.716;9.212;2022-09-13T13:14:54;8.32;;;6.05;;
24223;SDS011;12359;49.716;9.212;2022-09-13T13:33:55;8.80;;;7.88;;
24223;SDS011;12359;49.716;9.212;2022-09-13T13:36:23;15.50;;;10.18;;
24223;SDS011;12359;49.716;9.212;2022-09-13T13:38:53;12.55;;;7.82;;
24223;SDS011;12359;49.716;9.212;2022-09-13T13:43:58;11.82;;;10.30;;
24223;SDS011;12359;49.716;9.212;2022-09-13T13:46:28;10.63;;;7.60;;
24223;SDS011;12359;49.716;9.212;2022-09-13T13:48:55;10.07;;;7.07;;
24223;SDS011;12359;49.716;9.212;2022-09-13T13:51:42;10.25;;;7.05;;
24223;SDS011;12359;49.716;9.212;2022-09-13T13:56:53;7.53;;;6.70;;
24223;SDS011;12359;49.716;9.212;2022-09-13T13:59:26;8.32;;;6.22;;
24223;SDS011;12359;49.716;9.212;2022-09-13T14:01:56;7.55;;;6.60;;
24223;SDS011;12359;49.716;9.212;2022-09-13T14:09:33;8.88;;;6.82;;
24223;SDS011;12359;49.716;9.212;2022-09-13T14:12:30;8.38;;;6.43;;
24223;SDS011;12359;49.716;9.212;2022-09-13T14:20:23;11.15;;;6.85;;
24223;SDS011;12359;49.716;9.212;2022-09-13T14:22:50;9.13;;;6.80;;
24223;SDS011;12359;49.716;9.212;2022-09-13T14:27:44;10.90;;;8.13;;
24223;SDS011;12359;49.716;9.212;2022-09-13T14:30:22;13.30;;;8.38;;
24223;SDS011;12359;49.716;9.212;2022-09-13T14:32:55;13.20;;;8.18;;
24223;SDS011;12359;49.716;9.212;2022-09-13T14:40:45;8.30;;;7.38;;
24223;SDS011;12359;49.716;9.212;2022-09-13T14:43:17;20.42;;;8.13;;
24223;SDS011;12359;49.716;9.212;2022-09-13T14:45:59;11.48;;;7.80;;
24223;SDS011;12359;49.716;9.212;2022-09-13T14:48:54;9.45;;;7.40;;
24223;SDS011;12359;49.716;9.212;2022-09-13T14:53:53;10.98;;;7.57;;
24223;SDS011;12359;49.716;9.212;2022-09-13T14:56:27;28.65;;;8.32;;
24223;SDS011;12359;49.716;9.212;2022-09-13T14:59:05;7.82;;;7.03;;
24223;SDS011;12359;49.716;9.212;2022-09-13T15:01:48;8.93;;;6.57;;
24223;SDS011;12359;49.716;9.212;2022-09-13T15:04:15;11.48;;;7.63;;
24223;SDS011;12359;49.716;9.212;2022-09-13T15:06:42;14.85;;;7.13;;
24223;SDS011;12359;49.716;9.212;2022-09-13T15:11:36;8.73;;;7.25;;
24223;SDS011;12359;49.716;9.212;2022-09-13T15:16:46;12.05;;;7.50;;
24223;SDS011;12359;49.716;9.212;2022-09-13T15:21:49;11.38;;;8.60;;
24223;SDS011;12359;49.716;9.212;2022-09-13T15:24:24;16.10;;;9.73;;
24223;SDS011;12359;49.716;9.212;2022-09-13T15:27:02;11.18;;;8.82;;
24223;SDS011;12359;49.716;9.212;2022-09-13T15:29:40;9.80;;;8.80;;
24223;SDS011;12359;49.716;9.212;2022-09-13T15:32:20;11.30;;;8.30;;
24223;SDS011;12359;49.716;9.212;2022-09-13T15:34:48;12.18;;;9.07;;
24223;SDS011;12359;49.716;9.212;2022-09-13T15:37:14;7.45;;;6.75;;
24223;SDS011;12359;49.716;9.212;2022-09-13T15:44:51;10.02;;;7.45;;
24223;SDS011;12359;49.716;9.212;2022-09-13T15:47:17;12.50;;;7.35;;
24223;SDS011;12359;49.716;9.212;2022-09-13T15:49:50;11.95;;;7.43;;
24223;SDS011;12359;49.716;9.212;2022-09-13T15:52:17;10.88;;;6.97;;
24223;SDS011;12359;49.716;9.212;2022-09-13T15:54:45;7.53;;;6.60;;
24223;SDS011;12359;49.716;9.212;2022-09-13T15:57:17;8.88;;;6.90;;
24223;SDS011;12359;49.716;9.212;2022-09-13T15:59:44;12.15;;;6.63;;
24223;SDS011;12359;49.716;9.212;2022-09-13T16:02:30;8.20;;;5.80;;
24223;SDS011;12359;49.716;9.212;2022-09-13T16:04:57;7.20;;;6.50;;
24223;SDS011;12359;49.716;9.212;2022-09-13T16:07:23;8.65;;;6.72;;
24223;SDS011;12359;49.716;9.212;2022-09-13T16:09:50;6.90;;;6.15;;
24223;SDS011;12359;49.716;9.212;2022-09-13T16:12:17;8.80;;;6.53;;
24223;SDS011;12359;49.716;9.212;2022-09-13T16:14:43;10.50;;;6.93;;
24223;SDS011;12359;49.716;9.212;2022-09-13T16:17:23;7.47;;;5.72;;
24223;SDS011;12359;49.716;9.212;2022-09-13T16:19:50;8.05;;;6.20;;
24223;SDS011;12359;49.716;9.212;2022-09-13T16:22:16;8.40;;;6.40;;
24223;SDS011;12359;49.716;9.212;2022-09-13T16:24:42;5.72;;;5.22;;
24223;SDS011;12359;49.716;9.212;2022-09-13T16:27:11;7.78;;;5.55;;
24223;SDS011;12359;49.716;9.212;2022-09-13T16:29:39;7.10;;;4.97;;
24223;SDS011;12359;49.716;9.212;2022-09-13T16:32:05;8.25;;;5.30;;
24223;SDS011;12359;49.716;9.212;2022-09-13T16:34:31;6.22;;;5.40;;
24223;SDS011;12359;49.716;9.212;2022-09-13T16:36:56;9.50;;;5.85;;
24223;SDS011;12359;49.716;9.212;2022-09-13T16:39:22;7.82;;;5.28;;
24223;SDS011;12359;49.716;9.212;2022-09-13T16:41:48;6.63;;;5.38;;
24223;SDS011;12359;49.716;9.212;2022-09-13T16:44:14;7.25;;;5.68;;
24223;SDS011;12359;49.716;9.212;2022-09-13T16:46:40;8.50;;;5.32;;
24223;SDS011;12359;49.716;9.212;2022-09-13T16:49:05;5.28;;;4.57;;
24223;SDS011;12359;49.716;9.212;2022-09-13T16:51:31;5.72;;;4.90;;
24223;SDS011;12359;49.716;9.212;2022-09-13T16:53:57;6.18;;;5.57;;
24223;SDS011;12359;49.716;9.212;2022-09-13T16:56:23;5.78;;;4.78;;
24223;SDS011;12359;49.716;9.212;2022-09-13T16:58:51;7.00;;;5.68;;
24223;SDS011;12359;49.716;9.212;2022-09-13T17:01:26;5.65;;;5.13;;
24223;SDS011;12359;49.716;9.212;2022-09-13T17:03:53;5.97;;;5.38;;
24223;SDS011;12359;49.716;9.212;2022-09-13T17:06:20;7.38;;;5.20;;
24223;SDS011;12359;49.716;9.212;2022-09-13T17:08:50;5.45;;;4.95;;
24223;SDS011;12359;49.716;9.212;2022-09-13T17:11:20;13.10;;;5.20;;
24223;SDS011;12359;49.716;9.212;2022-09-13T17:13:47;5.28;;;4.78;;
24223;SDS011;12359;49.716;9.212;2022-09-13T17:16:21;10.18;;;5.50;;
24223;SDS011;12359;49.716;9.212;2022-09-13T17:18:51;6.38;;;4.75;;
24223;SDS011;12359;49.716;9.212;2022-09-13T17:21:17;11.48;;;4.88;;
24223;SDS011;12359;49.716;9.212;2022-09-13T17:23:43;6.00;;;4.97;;
24223;SDS011;12359;49.716;9.212;2022-09-13T17:26:09;5.78;;;5.00;;
24223;SDS011;12359;49.716;9.212;2022-09-13T17:28:35;5.90;;;5.40;;
24223;SDS011;12359;49.716;9.212;2022-09-13T17:31:01;5.28;;;4.43;;
24223;SDS011;12359;49.716;9.212;2022-09-13T17:33:27;6.97;;;5.10;;
24223;SDS011;12359;49.716;9.212;2022-09-13T17:35:59;5.30;;;4.80;;
24223;SDS011;12359;49.716;9.212;2022-09-13T17:38:25;6.72;;;5.28;;
24223;SDS011;12359;49.716;9.212;2022-09-13T17:40:58;5.78;;;5.18;;
24223;SDS011;12359;49.716;9.212;2022-09-13T17:43:28;5.90;;;5.40;;
24223;SDS011;12359;49.716;9.212;2022-09-13T17:45:54;8.30;;;6.13;;
24223;SDS011;12359;49.716;9.212;2022-09-13T17:48:21;6.35;;;4.82;;
24223;SDS011;12359;49.716;9.212;2022-09-13T17:50:47;4.68;;;3.42;;
24223;SDS011;12359;49.716;9.212;2022-09-13T17:53:12;4.80;;;4.28;;
24223;SDS011;12359;49.716;9.212;2022-09-13T17:55:45;7.97;;;4.28;;
24223;SDS011;12359;49.716;9.212;2022-09-13T17:58:11;6.53;;;4.00;;
24223;SDS011;12359;49.716;9.212;2022-09-13T18:00:37;5.03;;;4.30;;
24223;SDS011;12359;49.716;9.212;2022-09-13T18:03:03;4.93;;;3.40;;
24223;SDS011;12359;49.716;9.212;2022-09-13T18:05:28;4.68;;;4.10;;
24223;SDS011;12359;49.716;9.212;2022-09-13T18:07:54;6.13;;;3.67;;
24223;SDS011;12359;49.716;9.212;2022-09-13T18:10:20;6.05;;;4.03;;
24223;SDS011;12359;49.716;9.212;2022-09-13T18:12:46;4.28;;;3.88;;
24223;SDS011;12359;49.716;9.212;2022-09-13T18:15:11;10.20;;;4.95;;
24223;SDS011;12359;49.716;9.212;2022-09-13T18:17:37;4.53;;;4.13;;
24223;SDS011;12359;49.716;9.212;2022-09-13T18:20:06;4.60;;;4.20;;
24223;SDS011;12359;49.716;9.212;2022-09-13T18:22:31;4.75;;;4.20;;
24223;SDS011;12359;49.716;9.212;2022-09-13T18:24:57;6.13;;;4.57;;
24223;SDS011;12359;49.716;9.212;2022-09-13T18:27:25;4.15;;;3.50;;
24223;SDS011;12359;49.716;9.212;2022-09-13T18:29:51;4.90;;;4.40;;
24223;SDS011;12359;49.716;9.212;2022-09-13T18:32:17;5.10;;;4.38;;
24223;SDS011;12359;49.716;9.212;2022-09-13T18:34:42;5.75;;;5.15;;
24223;SDS011;12359;49.716;9.212;2022-09-13T18:37:08;8.48;;;4.22;;
24223;SDS011;12359;49.716;9.212;2022-09-13T18:39:34;5.28;;;4.50;;
24223;SDS011;12359;49.716;9.212;2022-09-13T18:42:00;7.05;;;4.28;;
24223;SDS011;12359;49.716;9.212;2022-09-13T18:44:26;5.00;;;3.95;;
24223;SDS011;12359;49.716;9.212;2022-09-13T18:46:54;4.18;;;3.63;;
24223;SDS011;12359;49.716;9.212;2022-09-13T18:49:20;5.78;;;4.35;;
24223;SDS011;12359;49.716;9.212;2022-09-13T18:51:47;6.13;;;4.75;;
24223;SDS011;12359;49.716;9.212;2022-09-13T18:54:14;5.57;;;4.93;;
24223;SDS011;12359;49.716;9.212;2022-09-13T18:56:41;6.97;;;4.90;;
24223;SDS011;12359;49.716;9.212;2022-09-13T18:59:08;11.18;;;3.97;;
24223;SDS011;12359;49.716;9.212;2022-09-13T19:01:35;7.65;;;5.72;;
24223;SDS011;12359;49.716;9.212;2022-09-13T19:04:06;7.50;;;5.47;;
24223;SDS011;12359;49.716;9.212;2022-09-13T19:06:36;4.95;;;4.47;;
24223;SDS011;12359;49.716;9.212;2022-09-13T19:09:04;5.03;;;4.63;;
24223;SDS011;12359;49.716;9.212;2022-09-13T19:11:31;7.13;;;5.10;;
24223;SDS011;12359;49.716;9.212;2022-09-13T19:13:58;5.22;;;3.80;;
24223;SDS011;12359;49.716;9.212;2022-09-13T19:16:24;5.82;;;4.50;;